sensor_id;sensor_type;location;lat;lon;timestamp;temperature;humidity
18317;DHT22;9284;52.298;21.164;2023-11-19T00:01:17;0.20;1.00
18317;DHT22;9284;52.298;21.164;2023-11-19T00:03:46;0.30;1.00
18317;DHT22;9284;52.298;21.164;2023-11-19T00:06:26;0.20;1.00
18317;DHT22;9284;52.298;21.164;2023-11-19T00:08:58;0.20;1.00
18317;DHT22;9284;52.298;21.164;2023-11-19T00:11:31;0.40;1.00
18317;DHT22;9284;52.298;21.164;2023-11-19T00:14:00;0.30;1.00
18317;DHT22;9284;52.298;21.164;2023-11-19T00:16:31;0.20;1.00
18317;DHT22;9284;52.298;21.164;2023-11-19T00:19:11;0.20;1.00
18317;DHT22;9284;52.298;21.164;2023-11-19T00:21:44;0.20;1.00
18317;DHT22;9284;52.298;21.164;2023-11-19T00:24:15;0.20;1.00
18317;DHT22;9284;52.298;21.164;2023-11-19T00:27:08;0.30;1.00
18317;DHT22;9284;52.298;21.164;2023-11-19T00:29:38;0.20;1.00
18317;DHT22;9284;52.298;21.164;2023-11-19T00:32:06;0.20;1.00
18317;DHT22;9284;52.298;21.164;2023-11-19T00:34:39;0.20;1.00
18317;DHT22;9284;52.298;21.164;2023-11-19T00:37:07;0.40;1.00
18317;DHT22;9284;52.298;21.164;2023-11-19T00:39:37;0.30;1.00
18317;DHT22;9284;52.298;21.164;2023-11-19T00:42:06;0.30;1.00
18317;DHT22;9284;52.298;21.164;2023-11-19T00:44:39;0.20;1.00
18317;DHT22;9284;52.298;21.164;2023-11-19T00:47:17;0.20;1.00
18317;DHT22;9284;52.298;21.164;2023-11-19T00:49:48;0.20;1.00
18317;DHT22;9284;52.298;21.164;2023-11-19T00:52:17;0.30;1.00
18317;DHT22;9284;52.298;21.164;2023-11-19T00:54:50;0.20;1.00
18317;DHT22;9284;52.298;21.164;2023-11-19T00:57:21;0.30;1.00
18317;DHT22;9284;52.298;21.164;2023-11-19T00:59:52;0.30;1.00
18317;DHT22;9284;52.298;21.164;2023-11-19T01:02:25;0.20;1.00
18317;DHT22;9284;52.298;21.164;2023-11-19T01:04:58;0.30;1.00
18317;DHT22;9284;52.298;21.164;2023-11-19T01:07:30;0.30;1.00
18317;DHT22;9284;52.298;21.164;2023-11-19T01:10:05;0.40;1.00
18317;DHT22;9284;52.298;21.164;2023-11-19T01:12:36;0.40;1.00
18317;DHT22;9284;52.298;21.164;2023-11-19T01:15:06;0.40;1.00
18317;DHT22;9284;52.298;21.164;2023-11-19T01:17:35;0.30;1.00
18317;DHT22;9284;52.298;21.164;2023-11-19T01:20:06;0.30;1.00
18317;DHT22;9284;52.298;21.164;2023-11-19T01:22:36;0.30;1.00
18317;DHT22;9284;52.298;21.164;2023-11-19T01:25:10;0.50;1.00
18317;DHT22;9284;52.298;21.164;2023-11-19T01:27:39;0.30;1.00
18317;DHT22;9284;52.298;21.164;2023-11-19T01:30:10;0.30;1.00
18317;DHT22;9284;52.298;21.164;2023-11-19T01:32:43;0.30;1.00
18317;DHT22;9284;52.298;21.164;2023-11-19T01:35:14;0.30;1.00
18317;DHT22;9284;52.298;21.164;2023-11-19T01:37:43;0.30;1.00
18317;DHT22;9284;52.298;21.164;2023-11-19T01:40:14;0.20;1.00
18317;DHT22;9284;52.298;21.164;2023-11-19T01:42:43;0.30;1.00
18317;DHT22;9284;52.298;21.164;2023-11-19T01:45:26;0.30;1.00
18317;DHT22;9284;52.298;21.164;2023-11-19T01:47:55;0.30;1.00
18317;DHT22;9284;52.298;21.164;2023-11-19T01:50:26;0.40;1.00
18317;DHT22;9284;52.298;21.164;2023-11-19T01:53:00;0.30;1.00
18317;DHT22;9284;52.298;21.164;2023-11-19T01:55:34;0.30;1.00
18317;DHT22;9284;52.298;21.164;2023-11-19T01:58:03;0.30;1.00
18317;DHT22;9284;52.298;21.164;2023-11-19T02:00:31;0.30;1.00
18317;DHT22;9284;52.298;21.164;2023-11-19T02:03:05;0.20;1.00
18317;DHT22;9284;52.298;21.164;2023-11-19T02:05:36;0.30;1.00
18317;DHT22;9284;52.298;21.164;2023-11-19T02:08:07;0.20;1.00
18317;DHT22;9284;52.298;21.164;2023-11-19T02:10:38;0.30;1.00
18317;DHT22;9284;52.298;21.164;2023-11-19T02:13:06;0.20;1.00
18317;DHT22;9284;52.298;21.164;2023-11-19T02:15:35;0.30;1.00
18317;DHT22;9284;52.298;21.164;2023-11-19T02:18:21;0.20;1.00
18317;DHT22;9284;52.298;21.164;2023-11-19T02:20:50;0.30;1.00
18317;DHT22;9284;52.298;21.164;2023-11-19T02:23:20;0.30;1.00
18317;DHT22;9284;52.298;21.164;2023-11-19T02:26:03;0.30;1.00
18317;DHT22;9284;52.298;21.164;2023-11-19T02:28:52;0.30;1.00
18317;DHT22;9284;52.298;21.164;2023-11-19T02:31:21;0.30;1.00
18317;DHT22;9284;52.298;21.164;2023-11-19T02:33:52;0.30;1.00
18317;DHT22;9284;52.298;21.164;2023-11-19T02:36:24;0.30;1.00
18317;DHT22;9284;52.298;21.164;2023-11-19T02:38:56;0.30;1.00
18317;DHT22;9284;52.298;21.164;2023-11-19T02:41:32;0.40;1.00
18317;DHT22;9284;52.298;21.164;2023-11-19T02:44:02;0.40;1.00
18317;DHT22;9284;52.298;21.164;2023-11-19T02:46:32;0.30;1.00
18317;DHT22;9284;52.298;21.164;2023-11-19T02:49:01;0.30;1.00
18317;DHT22;9284;52.298;21.164;2023-11-19T02:51:32;0.20;1.00
18317;DHT22;9284;52.298;21.164;2023-11-19T02:54:06;0.30;1.00
18317;DHT22;9284;52.298;21.164;2023-11-19T02:56:37;0.30;1.00
18317;DHT22;9284;52.298;21.164;2023-11-19T02:59:08;0.20;1.00
18317;DHT22;9284;52.298;21.164;2023-11-19T03:01:45;0.30;1.00
18317;DHT22;9284;52.298;21.164;2023-11-19T03:04:19;0.30;1.00
18317;DHT22;9284;52.298;21.164;2023-11-19T03:06:56;0.20;1.00
18317;DHT22;9284;52.298;21.164;2023-11-19T03:09:25;0.20;1.00
18317;DHT22;9284;52.298;21.164;2023-11-19T03:11:53;0.30;1.00
18317;DHT22;9284;52.298;21.164;2023-11-19T03:14:23;0.30;1.00
18317;DHT22;9284;52.298;21.164;2023-11-19T03:16:52;0.20;1.00
18317;DHT22;9284;52.298;21.164;2023-11-19T03:19:24;0.40;1.00
18317;DHT22;9284;52.298;21.164;2023-11-19T03:21:54;0.30;1.00
18317;DHT22;9284;52.298;21.164;2023-11-19T03:24:25;0.40;1.00
18317;DHT22;9284;52.298;21.164;2023-11-19T03:26:57;0.30;1.00
18317;DHT22;9284;52.298;21.164;2023-11-19T03:29:33;0.30;1.00
18317;DHT22;9284;52.298;21.164;2023-11-19T03:32:05;0.30;1.00
18317;DHT22;9284;52.298;21.164;2023-11-19T03:34:35;0.30;1.00
18317;DHT22;9284;52.298;21.164;2023-11-19T03:37:06;0.30;1.00
18317;DHT22;9284;52.298;21.164;2023-11-19T03:39:36;0.30;1.00
18317;DHT22;9284;52.298;21.164;2023-11-19T03:42:04;0.30;1.00
18317;DHT22;9284;52.298;21.164;2023-11-19T03:44:39;0.30;1.00
18317;DHT22;9284;52.298;21.164;2023-11-19T03:47:26;0.30;1.00
18317;DHT22;9284;52.298;21.164;2023-11-19T03:49:58;0.30;1.00
18317;DHT22;9284;52.298;21.164;2023-11-19T03:52:26;0.30;1.00
18317;DHT22;9284;52.298;21.164;2023-11-19T03:54:55;0.20;1.00
18317;DHT22;9284;52.298;21.164;2023-11-19T03:57:24;0.10;1.00
18317;DHT22;9284;52.298;21.164;2023-11-19T03:59:54;0.30;1.00
18317;DHT22;9284;52.298;21.164;2023-11-19T04:02:22;0.30;1.00
18317;DHT22;9284;52.298;21.164;2023-11-19T04:04:50;0.20;1.00
18317;DHT22;9284;52.298;21.164;2023-11-19T04:07:19;0.20;1.00
18317;DHT22;9284;52.298;21.164;2023-11-19T04:09:47;0.30;1.00
18317;DHT22;9284;52.298;21.164;2023-11-19T04:12:17;0.30;1.00
18317;DHT22;9284;52.298;21.164;2023-11-19T04:14:46;0.40;1.00
18317;DHT22;9284;52.298;21.164;2023-11-19T04:17:33;0.30;1.00
18317;DHT22;9284;52.298;21.164;2023-11-19T04:20:08;0.40;1.00
18317;DHT22;9284;52.298;21.164;2023-11-19T04:22:45;0.30;1.00
18317;DHT22;9284;52.298;21.164;2023-11-19T04:25:14;0.30;1.00
18317;DHT22;9284;52.298;21.164;2023-11-19T04:27:43;0.30;1.00
18317;DHT22;9284;52.298;21.164;2023-11-19T04:30:14;0.40;1.00
18317;DHT22;9284;52.298;21.164;2023-11-19T04:32:46;0.30;1.00
18317;DHT22;9284;52.298;21.164;2023-11-19T04:35:18;0.30;1.00
18317;DHT22;9284;52.298;21.164;2023-11-19T04:37:47;0.30;1.00
18317;DHT22;9284;52.298;21.164;2023-11-19T04:40:16;0.50;1.00
18317;DHT22;9284;52.298;21.164;2023-11-19T04:42:45;0.30;1.00
18317;DHT22;9284;52.298;21.164;2023-11-19T04:45:14;0.30;1.00
18317;DHT22;9284;52.298;21.164;2023-11-19T04:47:43;0.50;1.00
18317;DHT22;9284;52.298;21.164;2023-11-19T04:50:15;0.40;1.00
18317;DHT22;9284;52.298;21.164;2023-11-19T04:52:44;0.40;1.00
18317;DHT22;9284;52.298;21.164;2023-11-19T04:55:15;0.50;1.00
18317;DHT22;9284;52.298;21.164;2023-11-19T04:57:46;0.40;1.00
18317;DHT22;9284;52.298;21.164;2023-11-19T05:00:16;0.40;1.00
18317;DHT22;9284;52.298;21.164;2023-11-19T05:02:50;0.40;1.00
18317;DHT22;9284;52.298;21.164;2023-11-19T05:05:20;0.60;1.00
18317;DHT22;9284;52.298;21.164;2023-11-19T05:07:50;0.60;1.00
18317;DHT22;9284;52.298;21.164;2023-11-19T05:10:18;0.50;1.00
18317;DHT22;9284;52.298;21.164;2023-11-19T05:12:47;0.50;1.00
18317;DHT22;9284;52.298;21.164;2023-11-19T05:15:15;0.40;1.00
18317;DHT22;9284;52.298;21.164;2023-11-19T05:17:51;0.50;1.00
18317;DHT22;9284;52.298;21.164;2023-11-19T05:20:22;0.50;1.00
18317;DHT22;9284;52.298;21.164;2023-11-19T05:22:52;0.40;1.00
18317;DHT22;9284;52.298;21.164;2023-11-19T05:25:21;0.50;1.00
18317;DHT22;9284;52.298;21.164;2023-11-19T05:27:50;0.40;1.00
18317;DHT22;9284;52.298;21.164;2023-11-19T05:30:23;0.50;1.00
18317;DHT22;9284;52.298;21.164;2023-11-19T05:32:52;0.60;1.00
18317;DHT22;9284;52.298;21.164;2023-11-19T05:35:58;0.50;1.00
18317;DHT22;9284;52.298;21.164;2023-11-19T05:42:51;0.60;1.00
18317;DHT22;9284;52.298;21.164;2023-11-19T06:03:11;0.60;1.00
18317;DHT22;9284;52.298;21.164;2023-11-19T06:05:39;0.70;1.00
18317;DHT22;9284;52.298;21.164;2023-11-19T06:08:08;0.70;4.40
18317;DHT22;9284;52.298;21.164;2023-11-19T06:15:12;0.70;7.20
18317;DHT22;9284;52.298;21.164;2023-11-19T06:22:19;0.70;9.10
18317;DHT22;9284;52.298;21.164;2023-11-19T06:28:02;0.70;6.70
18317;DHT22;9284;52.298;21.164;2023-11-19T06:38:37;0.80;1.00
18317;DHT22;9284;52.298;21.164;2023-11-19T06:41:10;0.70;1.00
18317;DHT22;9284;52.298;21.164;2023-11-19T06:43:39;0.70;1.00
18317;DHT22;9284;52.298;21.164;2023-11-19T06:47:06;0.80;1.00
18317;DHT22;9284;52.298;21.164;2023-11-19T06:49:37;0.80;1.00
18317;DHT22;9284;52.298;21.164;2023-11-19T06:52:05;0.80;1.00
18317;DHT22;9284;52.298;21.164;2023-11-19T06:54:35;0.80;1.00
18317;DHT22;9284;52.298;21.164;2023-11-19T06:57:06;0.80;1.00
18317;DHT22;9284;52.298;21.164;2023-11-19T07:43:22;1.00;1.00
18317;DHT22;9284;52.298;21.164;2023-11-19T07:45:50;0.90;1.00
18317;DHT22;9284;52.298;21.164;2023-11-19T07:48:23;0.90;1.00
18317;DHT22;9284;52.298;21.164;2023-11-19T07:50:56;0.90;1.00
18317;DHT22;9284;52.298;21.164;2023-11-19T07:53:26;1.10;1.00
18317;DHT22;9284;52.298;21.164;2023-11-19T07:55:57;0.80;99.90
18317;DHT22;9284;52.298;21.164;2023-11-19T07:58:28;0.90;1.00
18317;DHT22;9284;52.298;21.164;2023-11-19T08:00:58;0.90;1.00
18317;DHT22;9284;52.298;21.164;2023-11-19T08:03:27;1.00;1.00
18317;DHT22;9284;52.298;21.164;2023-11-19T08:10:54;1.00;99.90
18317;DHT22;9284;52.298;21.164;2023-11-19T08:13:23;1.00;99.90
18317;DHT22;9284;52.298;21.164;2023-11-19T08:23:07;1.10;1.00
18317;DHT22;9284;52.298;21.164;2023-11-19T08:25:35;1.20;1.00
18317;DHT22;9284;52.298;21.164;2023-11-19T08:28:06;1.20;1.00
18317;DHT22;9284;52.298;21.164;2023-11-19T08:30:37;1.20;1.00
18317;DHT22;9284;52.298;21.164;2023-11-19T08:33:10;1.30;1.00
18317;DHT22;9284;52.298;21.164;2023-11-19T08:35:45;1.20;1.00
18317;DHT22;9284;52.298;21.164;2023-11-19T08:38:15;1.30;1.00
18317;DHT22;9284;52.298;21.164;2023-11-19T08:41:23;1.20;99.90
18317;DHT22;9284;52.298;21.164;2023-11-19T08:43:52;1.40;1.00
18317;DHT22;9284;52.298;21.164;2023-11-19T08:46:23;1.30;1.00
18317;DHT22;9284;52.298;21.164;2023-11-19T08:48:52;1.30;1.00
18317;DHT22;9284;52.298;21.164;2023-11-19T08:51:25;1.30;1.00
18317;DHT22;9284;52.298;21.164;2023-11-19T08:54:00;1.40;1.00
18317;DHT22;9284;52.298;21.164;2023-11-19T08:56:32;1.40;1.00
18317;DHT22;9284;52.298;21.164;2023-11-19T08:59:04;1.60;99.90
18317;DHT22;9284;52.298;21.164;2023-11-19T09:01:35;1.70;1.00
18317;DHT22;9284;52.298;21.164;2023-11-19T09:04:09;1.60;99.90
18317;DHT22;9284;52.298;21.164;2023-11-19T09:06:50;1.50;99.90
18317;DHT22;9284;52.298;21.164;2023-11-19T09:09:21;1.60;99.90
18317;DHT22;9284;52.298;21.164;2023-11-19T09:11:51;1.40;99.90
18317;DHT22;9284;52.298;21.164;2023-11-19T09:14:30;1.70;99.90
18317;DHT22;9284;52.298;21.164;2023-11-19T09:16:59;1.50;99.90
18317;DHT22;9284;52.298;21.164;2023-11-19T09:19:32;1.50;99.90
18317;DHT22;9284;52.298;21.164;2023-11-19T09:22:07;1.50;99.90
18317;DHT22;9284;52.298;21.164;2023-11-19T09:24:38;1.60;1.00
18317;DHT22;9284;52.298;21.164;2023-11-19T09:27:44;1.70;1.00
18317;DHT22;9284;52.298;21.164;2023-11-19T09:30:13;1.60;99.90
18317;DHT22;9284;52.298;21.164;2023-11-19T09:32:45;1.70;75.30
18317;DHT22;9284;52.298;21.164;2023-11-19T09:35:17;1.70;47.80
18317;DHT22;9284;52.298;21.164;2023-11-19T09:37:48;1.60;1.00
18317;DHT22;9284;52.298;21.164;2023-11-19T09:40:19;1.60;1.00
18317;DHT22;9284;52.298;21.164;2023-11-19T09:42:51;1.70;99.90
18317;DHT22;9284;52.298;21.164;2023-11-19T09:45:21;1.70;99.90
18317;DHT22;9284;52.298;21.164;2023-11-19T09:47:57;1.50;1.00
18317;DHT22;9284;52.298;21.164;2023-11-19T09:50:29;1.40;1.00
18317;DHT22;9284;52.298;21.164;2023-11-19T09:53:04;1.40;99.90
18317;DHT22;9284;52.298;21.164;2023-11-19T09:55:35;1.70;1.00
18317;DHT22;9284;52.298;21.164;2023-11-19T09:58:03;1.60;1.00
18317;DHT22;9284;52.298;21.164;2023-11-19T10:00:32;1.60;1.00
18317;DHT22;9284;52.298;21.164;2023-11-19T10:03:00;1.80;1.00
18317;DHT22;9284;52.298;21.164;2023-11-19T10:05:32;1.80;1.00
18317;DHT22;9284;52.298;21.164;2023-11-19T10:08:01;1.90;1.00
18317;DHT22;9284;52.298;21.164;2023-11-19T10:10:30;2.00;1.00
18317;DHT22;9284;52.298;21.164;2023-11-19T10:13:00;2.00;1.00
18317;DHT22;9284;52.298;21.164;2023-11-19T10:15:32;1.80;99.90
18317;DHT22;9284;52.298;21.164;2023-11-19T10:18:05;1.80;99.90
18317;DHT22;9284;52.298;21.164;2023-11-19T10:20:40;1.60;99.90
18317;DHT22;9284;52.298;21.164;2023-11-19T10:23:09;1.70;99.90
18317;DHT22;9284;52.298;21.164;2023-11-19T10:25:40;1.70;81.70
18317;DHT22;9284;52.298;21.164;2023-11-19T10:28:10;1.60;1.00
18317;DHT22;9284;52.298;21.164;2023-11-19T10:30:38;1.50;1.00
18317;DHT22;9284;52.298;21.164;2023-11-19T10:33:08;1.60;1.00
18317;DHT22;9284;52.298;21.164;2023-11-19T10:35:50;1.60;1.00
18317;DHT22;9284;52.298;21.164;2023-11-19T10:38:24;1.60;1.00
18317;DHT22;9284;52.298;21.164;2023-11-19T10:40:55;1.60;1.00
18317;DHT22;9284;52.298;21.164;2023-11-19T10:43:26;1.60;1.00
18317;DHT22;9284;52.298;21.164;2023-11-19T10:46:09;1.70;1.00
18317;DHT22;9284;52.298;21.164;2023-11-19T10:48:41;1.70;1.00
18317;DHT22;9284;52.298;21.164;2023-11-19T10:51:10;1.70;1.00
18317;DHT22;9284;52.298;21.164;2023-11-19T10:53:40;1.80;1.00
18317;DHT22;9284;52.298;21.164;2023-11-19T10:56:16;1.90;1.00
18317;DHT22;9284;52.298;21.164;2023-11-19T10:58:49;1.80;99.90
18317;DHT22;9284;52.298;21.164;2023-11-19T11:01:24;1.70;99.90
18317;DHT22;9284;52.298;21.164;2023-11-19T11:04:00;1.60;99.90
18317;DHT22;9284;52.298;21.164;2023-11-19T11:06:36;1.60;99.90
18317;DHT22;9284;52.298;21.164;2023-11-19T11:09:08;1.50;99.90
18317;DHT22;9284;52.298;21.164;2023-11-19T11:11:39;1.60;1.00
18317;DHT22;9284;52.298;21.164;2023-11-19T11:14:16;1.50;1.00
18317;DHT22;9284;52.298;21.164;2023-11-19T11:16:58;1.60;1.00
18317;DHT22;9284;52.298;21.164;2023-11-19T11:19:26;1.60;1.00
18317;DHT22;9284;52.298;21.164;2023-11-19T11:21:55;1.70;1.00
18317;DHT22;9284;52.298;21.164;2023-11-19T11:27:45;1.60;1.00
18317;DHT22;9284;52.298;21.164;2023-11-19T11:30:29;1.60;4.40
18317;DHT22;9284;52.298;21.164;2023-11-19T11:33:20;1.70;1.00
18317;DHT22;9284;52.298;21.164;2023-11-19T11:36:03;1.50;1.00
18317;DHT22;9284;52.298;21.164;2023-11-19T11:38:40;1.50;1.00
18317;DHT22;9284;52.298;21.164;2023-11-19T11:41:20;1.50;1.00
18317;DHT22;9284;52.298;21.164;2023-11-19T11:43:59;1.50;1.00
18317;DHT22;9284;52.298;21.164;2023-11-19T11:46:56;1.50;1.00
18317;DHT22;9284;52.298;21.164;2023-11-19T11:49:28;1.60;22.60
18317;DHT22;9284;52.298;21.164;2023-11-19T11:51:59;1.50;14.10
18317;DHT22;9284;52.298;21.164;2023-11-19T11:54:28;1.50;24.50
18317;DHT22;9284;52.298;21.164;2023-11-19T11:57:11;1.50;99.90
18317;DHT22;9284;52.298;21.164;2023-11-19T11:59:48;1.40;1.00
18317;DHT22;9284;52.298;21.164;2023-11-19T12:02:20;1.40;99.90
18317;DHT22;9284;52.298;21.164;2023-11-19T12:04:58;1.40;99.90
18317;DHT22;9284;52.298;21.164;2023-11-19T12:07:38;1.40;99.90
18317;DHT22;9284;52.298;21.164;2023-11-19T12:10:15;1.60;99.90
18317;DHT22;9284;52.298;21.164;2023-11-19T12:12:53;1.40;98.00
18317;DHT22;9284;52.298;21.164;2023-11-19T12:15:22;1.40;99.90
18317;DHT22;9284;52.298;21.164;2023-11-19T12:17:56;1.40;99.90
18317;DHT22;9284;52.298;21.164;2023-11-19T12:20:28;1.40;99.90
18317;DHT22;9284;52.298;21.164;2023-11-19T12:23:06;1.40;99.90
18317;DHT22;9284;52.298;21.164;2023-11-19T12:25:42;1.40;99.90
18317;DHT22;9284;52.298;21.164;2023-11-19T12:28:13;1.40;99.90
18317;DHT22;9284;52.298;21.164;2023-11-19T12:30:45;1.50;99.90
18317;DHT22;9284;52.298;21.164;2023-11-19T12:33:16;1.40;99.90
18317;DHT22;9284;52.298;21.164;2023-11-19T12:35:45;1.40;99.90
18317;DHT22;9284;52.298;21.164;2023-11-19T12:38:26;1.40;99.90
18317;DHT22;9284;52.298;21.164;2023-11-19T12:41:05;1.40;99.90
18317;DHT22;9284;52.298;21.164;2023-11-19T12:43:34;1.40;1.00
18317;DHT22;9284;52.298;21.164;2023-11-19T12:46:17;1.60;1.00
18317;DHT22;9284;52.298;21.164;2023-11-19T12:48:49;1.50;1.00
18317;DHT22;9284;52.298;21.164;2023-11-19T12:51:18;1.60;1.00
18317;DHT22;9284;52.298;21.164;2023-11-19T12:53:48;1.50;1.00
18317;DHT22;9284;52.298;21.164;2023-11-19T12:56:19;1.60;1.00
18317;DHT22;9284;52.298;21.164;2023-11-19T12:58:47;1.60;1.00
18317;DHT22;9284;52.298;21.164;2023-11-19T13:01:18;1.50;99.90
18317;DHT22;9284;52.298;21.164;2023-11-19T13:03:51;1.50;99.90
18317;DHT22;9284;52.298;21.164;2023-11-19T13:06:25;1.50;99.90
18317;DHT22;9284;52.298;21.164;2023-11-19T13:08:53;1.50;99.90
18317;DHT22;9284;52.298;21.164;2023-11-19T13:11:32;1.50;99.90
18317;DHT22;9284;52.298;21.164;2023-11-19T13:14:03;1.50;99.90
18317;DHT22;9284;52.298;21.164;2023-11-19T13:16:33;1.40;99.90
18317;DHT22;9284;52.298;21.164;2023-11-19T13:19:04;1.50;99.90
18317;DHT22;9284;52.298;21.164;2023-11-19T13:21:33;1.30;99.90
18317;DHT22;9284;52.298;21.164;2023-11-19T13:24:01;1.30;99.90
18317;DHT22;9284;52.298;21.164;2023-11-19T13:26:29;1.30;99.90
18317;DHT22;9284;52.298;21.164;2023-11-19T13:28:59;1.30;99.90
18317;DHT22;9284;52.298;21.164;2023-11-19T13:31:27;1.30;99.90
18317;DHT22;9284;52.298;21.164;2023-11-19T13:33:55;1.30;99.90
18317;DHT22;9284;52.298;21.164;2023-11-19T13:36:26;1.30;99.90
18317;DHT22;9284;52.298;21.164;2023-11-19T13:38:55;1.20;1.00
18317;DHT22;9284;52.298;21.164;2023-11-19T13:41:27;1.20;1.00
18317;DHT22;9284;52.298;21.164;2023-11-19T13:43:55;1.20;1.00
18317;DHT22;9284;52.298;21.164;2023-11-19T13:46:23;1.20;1.00
18317;DHT22;9284;52.298;21.164;2023-11-19T13:48:52;1.20;1.00
18317;DHT22;9284;52.298;21.164;2023-11-19T13:51:20;1.20;1.00
18317;DHT22;9284;52.298;21.164;2023-11-19T13:53:49;1.10;1.00
18317;DHT22;9284;52.298;21.164;2023-11-19T13:56:18;1.10;1.00
18317;DHT22;9284;52.298;21.164;2023-11-19T13:58:46;1.10;1.00
18317;DHT22;9284;52.298;21.164;2023-11-19T14:01:15;1.10;1.00
18317;DHT22;9284;52.298;21.164;2023-11-19T14:03:43;1.10;1.00
18317;DHT22;9284;52.298;21.164;2023-11-19T14:06:11;1.20;1.00
18317;DHT22;9284;52.298;21.164;2023-11-19T14:08:40;1.20;1.00
18317;DHT22;9284;52.298;21.164;2023-11-19T14:11:09;1.20;1.00
18317;DHT22;9284;52.298;21.164;2023-11-19T14:13:38;1.10;1.00
18317;DHT22;9284;52.298;21.164;2023-11-19T14:16:07;1.20;1.00
18317;DHT22;9284;52.298;21.164;2023-11-19T14:18:36;1.20;1.00
18317;DHT22;9284;52.298;21.164;2023-11-19T14:21:05;1.10;1.00
18317;DHT22;9284;52.298;21.164;2023-11-19T14:23:34;1.20;1.00
18317;DHT22;9284;52.298;21.164;2023-11-19T14:26:02;1.20;1.00
18317;DHT22;9284;52.298;21.164;2023-11-19T14:28:32;1.20;1.00
18317;DHT22;9284;52.298;21.164;2023-11-19T14:31:01;1.10;1.00
18317;DHT22;9284;52.298;21.164;2023-11-19T14:33:30;1.30;1.00
18317;DHT22;9284;52.298;21.164;2023-11-19T14:35:59;1.10;1.00
18317;DHT22;9284;52.298;21.164;2023-11-19T14:38:27;1.10;1.00
18317;DHT22;9284;52.298;21.164;2023-11-19T14:40:56;1.10;1.00
18317;DHT22;9284;52.298;21.164;2023-11-19T14:43:26;1.10;1.00
18317;DHT22;9284;52.298;21.164;2023-11-19T14:45:55;1.10;1.00
18317;DHT22;9284;52.298;21.164;2023-11-19T14:48:24;1.20;1.00
18317;DHT22;9284;52.298;21.164;2023-11-19T14:50:52;1.20;1.00
18317;DHT22;9284;52.298;21.164;2023-11-19T14:53:20;1.20;1.00
18317;DHT22;9284;52.298;21.164;2023-11-19T14:55:49;1.30;1.00
18317;DHT22;9284;52.298;21.164;2023-11-19T14:58:17;1.20;1.00
18317;DHT22;9284;52.298;21.164;2023-11-19T15:00:46;1.20;1.00
18317;DHT22;9284;52.298;21.164;2023-11-19T15:03:18;1.20;1.00
18317;DHT22;9284;52.298;21.164;2023-11-19T15:05:48;1.20;1.00
18317;DHT22;9284;52.298;21.164;2023-11-19T15:08:18;1.20;1.00
18317;DHT22;9284;52.298;21.164;2023-11-19T15:10:46;1.20;1.00
18317;DHT22;9284;52.298;21.164;2023-11-19T15:13:15;1.20;1.00
18317;DHT22;9284;52.298;21.164;2023-11-19T15:15:43;1.20;1.00
18317;DHT22;9284;52.298;21.164;2023-11-19T15:18:12;1.20;1.00
18317;DHT22;9284;52.298;21.164;2023-11-19T15:20:42;1.10;1.00
18317;DHT22;9284;52.298;21.164;2023-11-19T15:23:14;1.10;1.00
18317;DHT22;9284;52.298;21.164;2023-11-19T15:25:42;1.10;1.00
18317;DHT22;9284;52.298;21.164;2023-11-19T15:28:11;1.10;1.00
18317;DHT22;9284;52.298;21.164;2023-11-19T15:30:39;1.10;1.00
18317;DHT22;9284;52.298;21.164;2023-11-19T15:33:08;1.10;1.00
18317;DHT22;9284;52.298;21.164;2023-11-19T15:35:39;1.20;1.00
18317;DHT22;9284;52.298;21.164;2023-11-19T15:38:09;1.20;1.00
18317;DHT22;9284;52.298;21.164;2023-11-19T15:40:37;1.20;1.00
18317;DHT22;9284;52.298;21.164;2023-11-19T15:43:06;1.10;1.00
18317;DHT22;9284;52.298;21.164;2023-11-19T15:45:34;1.10;1.00
18317;DHT22;9284;52.298;21.164;2023-11-19T15:48:05;1.20;1.00
18317;DHT22;9284;52.298;21.164;2023-11-19T15:50:33;1.20;1.00
18317;DHT22;9284;52.298;21.164;2023-11-19T15:53:02;1.20;1.00
18317;DHT22;9284;52.298;21.164;2023-11-19T15:55:31;1.10;1.00
18317;DHT22;9284;52.298;21.164;2023-11-19T15:58:00;1.20;1.00
18317;DHT22;9284;52.298;21.164;2023-11-19T16:00:28;1.10;1.00
18317;DHT22;9284;52.298;21.164;2023-11-19T16:02:56;1.20;1.00
18317;DHT22;9284;52.298;21.164;2023-11-19T16:05:25;1.20;1.00
18317;DHT22;9284;52.298;21.164;2023-11-19T16:07:53;1.30;1.00
18317;DHT22;9284;52.298;21.164;2023-11-19T16:10:21;1.20;1.00
18317;DHT22;9284;52.298;21.164;2023-11-19T16:12:54;1.20;1.00
18317;DHT22;9284;52.298;21.164;2023-11-19T16:15:22;1.10;1.00
18317;DHT22;9284;52.298;21.164;2023-11-19T16:17:53;1.10;1.00
18317;DHT22;9284;52.298;21.164;2023-11-19T16:20:24;1.00;1.00
18317;DHT22;9284;52.298;21.164;2023-11-19T16:22:53;1.10;1.00
18317;DHT22;9284;52.298;21.164;2023-11-19T16:25:21;1.10;4.50
18317;DHT22;9284;52.298;21.164;2023-11-19T16:27:49;1.30;9.10
18317;DHT22;9284;52.298;21.164;2023-11-19T16:30:20;1.10;11.50
18317;DHT22;9284;52.298;21.164;2023-11-19T16:32:53;1.10;13.60
18317;DHT22;9284;52.298;21.164;2023-11-19T16:35:21;1.10;16.50
18317;DHT22;9284;52.298;21.164;2023-11-19T16:37:50;1.00;20.10
18317;DHT22;9284;52.298;21.164;2023-11-19T16:40:19;1.10;23.00
18317;DHT22;9284;52.298;21.164;2023-11-19T16:42:50;1.10;26.50
18317;DHT22;9284;52.298;21.164;2023-11-19T16:45:19;1.10;29.60
18317;DHT22;9284;52.298;21.164;2023-11-19T16:47:48;1.10;33.60
18317;DHT22;9284;52.298;21.164;2023-11-19T16:50:17;1.10;38.70
18317;DHT22;9284;52.298;21.164;2023-11-19T16:52:46;1.20;43.40
18317;DHT22;9284;52.298;21.164;2023-11-19T16:55:14;1.20;46.10
18317;DHT22;9284;52.298;21.164;2023-11-19T16:57:43;1.30;46.90
18317;DHT22;9284;52.298;21.164;2023-11-19T17:00:12;1.10;48.80
18317;DHT22;9284;52.298;21.164;2023-11-19T17:02:42;1.10;53.00
18317;DHT22;9284;52.298;21.164;2023-11-19T17:05:13;1.10;55.50
18317;DHT22;9284;52.298;21.164;2023-11-19T17:07:42;1.10;58.20
18317;DHT22;9284;52.298;21.164;2023-11-19T17:10:10;1.10;61.50
18317;DHT22;9284;52.298;21.164;2023-11-19T17:12:39;1.10;64.30
18317;DHT22;9284;52.298;21.164;2023-11-19T17:15:08;1.10;67.00
18317;DHT22;9284;52.298;21.164;2023-11-19T17:17:38;1.10;70.20
18317;DHT22;9284;52.298;21.164;2023-11-19T17:20:09;1.10;73.40
18317;DHT22;9284;52.298;21.164;2023-11-19T17:22:40;1.10;76.30
18317;DHT22;9284;52.298;21.164;2023-11-19T17:25:09;1.20;80.40
18317;DHT22;9284;52.298;21.164;2023-11-19T17:27:38;1.20;82.10
18317;DHT22;9284;52.298;21.164;2023-11-19T17:30:07;1.10;84.80
18317;DHT22;9284;52.298;21.164;2023-11-19T17:32:38;1.10;88.30
18317;DHT22;9284;52.298;21.164;2023-11-19T17:35:08;1.10;90.30
18317;DHT22;9284;52.298;21.164;2023-11-19T17:37:37;1.10;91.00
18317;DHT22;9284;52.298;21.164;2023-11-19T17:40:06;1.10;91.80
18317;DHT22;9284;52.298;21.164;2023-11-19T17:42:36;1.20;93.70
18317;DHT22;9284;52.298;21.164;2023-11-19T17:45:05;1.10;94.60
18317;DHT22;9284;52.298;21.164;2023-11-19T17:47:33;1.10;95.30
18317;DHT22;9284;52.298;21.164;2023-11-19T17:50:02;1.20;95.80
18317;DHT22;9284;52.298;21.164;2023-11-19T17:52:52;1.00;97.00
18317;DHT22;9284;52.298;21.164;2023-11-19T17:55:20;1.20;98.80
18317;DHT22;9284;52.298;21.164;2023-11-19T17:57:49;1.20;99.50
18317;DHT22;9284;52.298;21.164;2023-11-19T18:00:18;1.20;99.20
18317;DHT22;9284;52.298;21.164;2023-11-19T18:02:48;1.20;99.10
18317;DHT22;9284;52.298;21.164;2023-11-19T18:05:19;1.20;99.50
18317;DHT22;9284;52.298;21.164;2023-11-19T18:07:48;1.20;99.90